sensor_id;sensor_type;location;lat;lon;timestamp;P1;durP1;ratioP1;P2;durP2;ratioP2
59109;SDS011;44895;47.438;18.978;2023-08-31T00:02:18;19.95;;;7.45;;
59109;SDS011;44895;47.438;18.978;2023-08-31T00:05:23;11.63;;;7.30;;
59109;SDS011;44895;47.438;18.978;2023-08-31T00:08:28;13.55;;;6.60;;
59109;SDS011;44895;47.438;18.978;2023-08-31T00:11:33;10.57;;;6.00;;
59109;SDS011;44895;47.438;18.978;2023-08-31T00:14:37;9.68;;;5.55;;
59109;SDS011;44895;47.438;18.978;2023-08-31T00:17:40;11.20;;;6.03;;
59109;SDS011;44895;47.438;18.978;2023-08-31T00:20:44;10.32;;;5.93;;
59109;SDS011;44895;47.438;18.978;2023-08-31T00:23:49;10.07;;;6.07;;
59109;SDS011;44895;47.438;18.978;2023-08-31T00:26:53;10.23;;;5.82;;
59109;SDS011;44895;47.438;18.978;2023-08-31T00:29:57;9.98;;;6.25;;
59109;SDS011;44895;47.438;18.978;2023-08-31T00:33:01;8.98;;;5.32;;
59109;SDS011;44895;47.438;18.978;2023-08-31T00:36:07;10.07;;;6.28;;
59109;SDS011;44895;47.438;18.978;2023-08-31T00:39:11;13.23;;;7.00;;
59109;SDS011;44895;47.438;18.978;2023-08-31T00:42:16;10.20;;;4.97;;
59109;SDS011;44895;47.438;18.978;2023-08-31T00:45:21;11.32;;;6.07;;
59109;SDS011;44895;47.438;18.978;2023-08-31T00:48:25;9.50;;;5.60;;
59109;SDS011;44895;47.438;18.978;2023-08-31T00:51:30;12.50;;;5.40;;
59109;SDS011;44895;47.438;18.978;2023-08-31T00:54:34;8.75;;;5.07;;
59109;SDS011;44895;47.438;18.978;2023-08-31T00:57:39;10.30;;;5.30;;
59109;SDS011;44895;47.438;18.978;2023-08-31T01:01:06;14.27;;;6.60;;
59109;SDS011;44895;47.438;18.978;2023-08-31T01:04:27;11.25;;;6.63;;
59109;SDS011;44895;47.438;18.978;2023-08-31T01:14:27;8.70;;;4.88;;
59109;SDS011;44895;47.438;18.978;2023-08-31T01:17:50;10.98;;;6.53;;
59109;SDS011;44895;47.438;18.978;2023-08-31T01:21:11;13.32;;;5.38;;
59109;SDS011;44895;47.438;18.978;2023-08-31T01:24:24;10.00;;;4.68;;
59109;SDS011;44895;47.438;18.978;2023-08-31T01:27:28;9.13;;;4.97;;
59109;SDS011;44895;47.438;18.978;2023-08-31T01:30:33;9.73;;;5.90;;
59109;SDS011;44895;47.438;18.978;2023-08-31T01:33:37;9.70;;;5.20;;
59109;SDS011;44895;47.438;18.978;2023-08-31T01:36:42;11.35;;;5.82;;
59109;SDS011;44895;47.438;18.978;2023-08-31T01:39:56;7.75;;;4.38;;
59109;SDS011;44895;47.438;18.978;2023-08-31T01:43:07;8.82;;;5.20;;
59109;SDS011;44895;47.438;18.978;2023-08-31T01:46:13;10.13;;;5.30;;
59109;SDS011;44895;47.438;18.978;2023-08-31T01:49:17;12.38;;;6.05;;
59109;SDS011;44895;47.438;18.978;2023-08-31T01:52:23;9.25;;;4.88;;
59109;SDS011;44895;47.438;18.978;2023-08-31T01:55:27;8.93;;;4.82;;
59109;SDS011;44895;47.438;18.978;2023-08-31T01:58:31;8.50;;;4.85;;
59109;SDS011;44895;47.438;18.978;2023-08-31T02:01:35;11.13;;;5.03;;
59109;SDS011;44895;47.438;18.978;2023-08-31T02:04:39;10.13;;;5.50;;
59109;SDS011;44895;47.438;18.978;2023-08-31T02:07:44;8.48;;;4.85;;
59109;SDS011;44895;47.438;18.978;2023-08-31T02:10:48;9.20;;;5.45;;
59109;SDS011;44895;47.438;18.978;2023-08-31T02:13:59;9.15;;;5.05;;
59109;SDS011;44895;47.438;18.978;2023-08-31T02:17:03;9.65;;;5.30;;
59109;SDS011;44895;47.438;18.978;2023-08-31T02:20:07;9.73;;;4.65;;
59109;SDS011;44895;47.438;18.978;2023-08-31T02:23:12;11.30;;;6.45;;
59109;SDS011;44895;47.438;18.978;2023-08-31T02:26:17;8.80;;;5.22;;
59109;SDS011;44895;47.438;18.978;2023-08-31T02:29:23;8.60;;;4.75;;
59109;SDS011;44895;47.438;18.978;2023-08-31T02:32:27;8.25;;;5.03;;
59109;SDS011;44895;47.438;18.978;2023-08-31T02:35:30;9.38;;;5.45;;
59109;SDS011;44895;47.438;18.978;2023-08-31T02:38:34;9.63;;;5.15;;
59109;SDS011;44895;47.438;18.978;2023-08-31T02:41:39;10.40;;;5.20;;
59109;SDS011;44895;47.438;18.978;2023-08-31T02:44:43;10.10;;;5.03;;
59109;SDS011;44895;47.438;18.978;2023-08-31T02:47:47;7.68;;;4.70;;
59109;SDS011;44895;47.438;18.978;2023-08-31T02:50:54;11.50;;;5.85;;
59109;SDS011;44895;47.438;18.978;2023-08-31T02:53:58;8.80;;;5.15;;
59109;SDS011;44895;47.438;18.978;2023-08-31T02:57:01;10.45;;;5.68;;
59109;SDS011;44895;47.438;18.978;2023-08-31T03:00:06;9.65;;;5.65;;
59109;SDS011;44895;47.438;18.978;2023-08-31T03:03:17;9.75;;;6.35;;
59109;SDS011;44895;47.438;18.978;2023-08-31T03:06:21;11.73;;;4.55;;
59109;SDS011;44895;47.438;18.978;2023-08-31T03:09:25;9.02;;;5.00;;
59109;SDS011;44895;47.438;18.978;2023-08-31T03:12:29;8.70;;;4.68;;
59109;SDS011;44895;47.438;18.978;2023-08-31T03:15:33;8.38;;;4.53;;
59109;SDS011;44895;47.438;18.978;2023-08-31T03:18:38;9.48;;;5.90;;
59109;SDS011;44895;47.438;18.978;2023-08-31T03:21:43;9.73;;;5.47;;
59109;SDS011;44895;47.438;18.978;2023-08-31T03:24:47;9.98;;;5.65;;
59109;SDS011;44895;47.438;18.978;2023-08-31T03:27:50;8.20;;;4.60;;
59109;SDS011;44895;47.438;18.978;2023-08-31T03:30:55;9.80;;;4.95;;
59109;SDS011;44895;47.438;18.978;2023-08-31T03:33:59;10.05;;;4.45;;
59109;SDS011;44895;47.438;18.978;2023-08-31T03:37:04;11.35;;;4.80;;
59109;SDS011;44895;47.438;18.978;2023-08-31T03:40:10;8.40;;;4.75;;
59109;SDS011;44895;47.438;18.978;2023-08-31T03:43:14;8.15;;;4.07;;
59109;SDS011;44895;47.438;18.978;2023-08-31T03:46:17;7.45;;;4.18;;
59109;SDS011;44895;47.438;18.978;2023-08-31T03:49:22;9.68;;;4.00;;
59109;SDS011;44895;47.438;18.978;2023-08-31T03:52:26;8.52;;;4.57;;
59109;SDS011;44895;47.438;18.978;2023-08-31T03:55:30;10.07;;;4.97;;
59109;SDS011;44895;47.438;18.978;2023-08-31T03:58:35;10.23;;;4.88;;
59109;SDS011;44895;47.438;18.978;2023-08-31T04:01:38;9.23;;;5.18;;
59109;SDS011;44895;47.438;18.978;2023-08-31T04:04:44;8.18;;;4.25;;
59109;SDS011;44895;47.438;18.978;2023-08-31T04:07:48;8.40;;;4.55;;
59109;SDS011;44895;47.438;18.978;2023-08-31T04:10:52;13.32;;;4.97;;
59109;SDS011;44895;47.438;18.978;2023-08-31T04:13:58;8.48;;;4.28;;
59109;SDS011;44895;47.438;18.978;2023-08-31T04:17:01;7.82;;;4.22;;
59109;SDS011;44895;47.438;18.978;2023-08-31T04:20:06;7.88;;;4.47;;
59109;SDS011;44895;47.438;18.978;2023-08-31T04:23:11;9.27;;;4.15;;
59109;SDS011;44895;47.438;18.978;2023-08-31T04:26:16;11.60;;;3.95;;
59109;SDS011;44895;47.438;18.978;2023-08-31T04:29:21;8.55;;;4.13;;
59109;SDS011;44895;47.438;18.978;2023-08-31T04:32:25;7.82;;;3.65;;
59109;SDS011;44895;47.438;18.978;2023-08-31T04:35:29;7.50;;;4.07;;
59109;SDS011;44895;47.438;18.978;2023-08-31T04:38:35;7.85;;;3.83;;
59109;SDS011;44895;47.438;18.978;2023-08-31T04:41:38;6.57;;;3.38;;
59109;SDS011;44895;47.438;18.978;2023-08-31T04:44:42;8.70;;;4.10;;
59109;SDS011;44895;47.438;18.978;2023-08-31T04:47:47;10.65;;;3.85;;
59109;SDS011;44895;47.438;18.978;2023-08-31T04:50:55;7.40;;;4.45;;
59109;SDS011;44895;47.438;18.978;2023-08-31T04:54:00;7.88;;;4.32;;
59109;SDS011;44895;47.438;18.978;2023-08-31T04:57:04;7.70;;;4.25;;
59109;SDS011;44895;47.438;18.978;2023-08-31T05:00:11;8.82;;;4.63;;
59109;SDS011;44895;47.438;18.978;2023-08-31T05:03:15;9.45;;;3.55;;
59109;SDS011;44895;47.438;18.978;2023-08-31T05:06:19;7.88;;;4.00;;
59109;SDS011;44895;47.438;18.978;2023-08-31T05:09:24;6.40;;;3.35;;
59109;SDS011;44895;47.438;18.978;2023-08-31T05:12:28;6.75;;;3.30;;
59109;SDS011;44895;47.438;18.978;2023-08-31T05:15:32;7.78;;;3.92;;
59109;SDS011;44895;47.438;18.978;2023-08-31T05:18:38;6.97;;;3.25;;
59109;SDS011;44895;47.438;18.978;2023-08-31T05:21:43;6.30;;;3.60;;
59109;SDS011;44895;47.438;18.978;2023-08-31T05:24:47;6.93;;;3.95;;
59109;SDS011;44895;47.438;18.978;2023-08-31T05:27:51;6.47;;;3.40;;
59109;SDS011;44895;47.438;18.978;2023-08-31T05:30:56;7.68;;;4.30;;
59109;SDS011;44895;47.438;18.978;2023-08-31T05:34:01;6.38;;;3.67;;
59109;SDS011;44895;47.438;18.978;2023-08-31T05:37:06;5.60;;;2.85;;
59109;SDS011;44895;47.438;18.978;2023-08-31T05:40:10;6.80;;;2.92;;
59109;SDS011;44895;47.438;18.978;2023-08-31T05:43:15;6.93;;;3.63;;
59109;SDS011;44895;47.438;18.978;2023-08-31T05:46:19;9.55;;;3.78;;
59109;SDS011;44895;47.438;18.978;2023-08-31T05:49:23;10.43;;;3.53;;
59109;SDS011;44895;47.438;18.978;2023-08-31T05:52:27;7.13;;;3.70;;
59109;SDS011;44895;47.438;18.978;2023-08-31T05:55:31;9.38;;;3.40;;
59109;SDS011;44895;47.438;18.978;2023-08-31T05:58:36;6.85;;;3.55;;
59109;SDS011;44895;47.438;18.978;2023-08-31T06:01:40;6.45;;;3.53;;
59109;SDS011;44895;47.438;18.978;2023-08-31T06:04:45;7.90;;;4.15;;
59109;SDS011;44895;47.438;18.978;2023-08-31T06:07:49;7.50;;;3.55;;
59109;SDS011;44895;47.438;18.978;2023-08-31T06:10:53;8.32;;;3.92;;
59109;SDS011;44895;47.438;18.978;2023-08-31T06:13:57;6.25;;;3.72;;
59109;SDS011;44895;47.438;18.978;2023-08-31T06:17:01;6.90;;;4.10;;
59109;SDS011;44895;47.438;18.978;2023-08-31T06:20:05;6.70;;;3.60;;
59109;SDS011;44895;47.438;18.978;2023-08-31T06:23:10;5.88;;;2.88;;
59109;SDS011;44895;47.438;18.978;2023-08-31T06:26:14;6.68;;;3.45;;
59109;SDS011;44895;47.438;18.978;2023-08-31T06:29:18;6.75;;;3.17;;
59109;SDS011;44895;47.438;18.978;2023-08-31T06:32:22;5.97;;;3.30;;
59109;SDS011;44895;47.438;18.978;2023-08-31T06:35:27;5.70;;;3.03;;
59109;SDS011;44895;47.438;18.978;2023-08-31T06:38:30;6.60;;;3.03;;
59109;SDS011;44895;47.438;18.978;2023-08-31T06:41:34;10.10;;;2.80;;
59109;SDS011;44895;47.438;18.978;2023-08-31T06:44:38;8.57;;;3.03;;
59109;SDS011;44895;47.438;18.978;2023-08-31T06:47:42;5.13;;;2.25;;
59109;SDS011;44895;47.438;18.978;2023-08-31T06:50:47;5.57;;;2.88;;
59109;SDS011;44895;47.438;18.978;2023-08-31T06:53:51;6.65;;;3.38;;
59109;SDS011;44895;47.438;18.978;2023-08-31T06:56:55;11.80;;;3.47;;
59109;SDS011;44895;47.438;18.978;2023-08-31T06:59:59;6.90;;;3.22;;
59109;SDS011;44895;47.438;18.978;2023-08-31T07:03:03;4.60;;;2.40;;
59109;SDS011;44895;47.438;18.978;2023-08-31T07:06:09;8.57;;;3.50;;
59109;SDS011;44895;47.438;18.978;2023-08-31T07:09:13;5.53;;;2.58;;
59109;SDS011;44895;47.438;18.978;2023-08-31T07:12:17;5.93;;;2.80;;
59109;SDS011;44895;47.438;18.978;2023-08-31T07:15:21;6.28;;;3.00;;
59109;SDS011;44895;47.438;18.978;2023-08-31T07:18:25;7.43;;;3.10;;
59109;SDS011;44895;47.438;18.978;2023-08-31T07:21:29;6.82;;;3.53;;
59109;SDS011;44895;47.438;18.978;2023-08-31T07:24:33;6.13;;;3.08;;
59109;SDS011;44895;47.438;18.978;2023-08-31T07:27:40;9.85;;;2.72;;
59109;SDS011;44895;47.438;18.978;2023-08-31T07:30:44;5.70;;;3.05;;
59109;SDS011;44895;47.438;18.978;2023-08-31T07:33:48;9.75;;;3.25;;
59109;SDS011;44895;47.438;18.978;2023-08-31T07:36:52;6.78;;;3.25;;
59109;SDS011;44895;47.438;18.978;2023-08-31T07:39:56;7.57;;;3.67;;
59109;SDS011;44895;47.438;18.978;2023-08-31T07:43:00;6.03;;;3.03;;
59109;SDS011;44895;47.438;18.978;2023-08-31T07:46:04;7.03;;;3.25;;
59109;SDS011;44895;47.438;18.978;2023-08-31T07:49:08;8.80;;;3.75;;
59109;SDS011;44895;47.438;18.978;2023-08-31T07:52:13;6.63;;;2.85;;
59109;SDS011;44895;47.438;18.978;2023-08-31T07:55:17;7.28;;;3.40;;
59109;SDS011;44895;47.438;18.978;2023-08-31T07:58:21;6.30;;;2.85;;
59109;SDS011;44895;47.438;18.978;2023-08-31T08:01:26;13.43;;;2.78;;
59109;SDS011;44895;47.438;18.978;2023-08-31T08:04:30;7.15;;;2.33;;
59109;SDS011;44895;47.438;18.978;2023-08-31T08:07:35;6.63;;;3.33;;
59109;SDS011;44895;47.438;18.978;2023-08-31T08:10:39;13.20;;;3.17;;
59109;SDS011;44895;47.438;18.978;2023-08-31T08:13:42;7.07;;;2.58;;
59109;SDS011;44895;47.438;18.978;2023-08-31T08:16:47;8.10;;;3.30;;
59109;SDS011;44895;47.438;18.978;2023-08-31T08:19:51;6.22;;;3.28;;
59109;SDS011;44895;47.438;18.978;2023-08-31T08:22:55;7.18;;;3.00;;
59109;SDS011;44895;47.438;18.978;2023-08-31T08:26:01;6.53;;;2.90;;
59109;SDS011;44895;47.438;18.978;2023-08-31T08:29:05;6.28;;;2.92;;
59109;SDS011;44895;47.438;18.978;2023-08-31T08:32:09;6.85;;;2.85;;
59109;SDS011;44895;47.438;18.978;2023-08-31T08:35:13;6.38;;;3.05;;
59109;SDS011;44895;47.438;18.978;2023-08-31T08:38:18;4.32;;;2.22;;
59109;SDS011;44895;47.438;18.978;2023-08-31T08:41:22;7.93;;;3.38;;
59109;SDS011;44895;47.438;18.978;2023-08-31T08:44:28;6.13;;;3.13;;
59109;SDS011;44895;47.438;18.978;2023-08-31T08:47:37;7.05;;;2.85;;
59109;SDS011;44895;47.438;18.978;2023-08-31T08:50:41;5.28;;;2.92;;
59109;SDS011;44895;47.438;18.978;2023-08-31T08:53:45;8.93;;;2.80;;
59109;SDS011;44895;47.438;18.978;2023-08-31T08:56:50;5.65;;;1.95;;
59109;SDS011;44895;47.438;18.978;2023-08-31T08:59:54;7.65;;;2.33;;
59109;SDS011;44895;47.438;18.978;2023-08-31T09:02:59;5.30;;;2.40;;
59109;SDS011;44895;47.438;18.978;2023-08-31T09:06:07;4.65;;;2.10;;
59109;SDS011;44895;47.438;18.978;2023-08-31T09:09:11;4.28;;;2.03;;
59109;SDS011;44895;47.438;18.978;2023-08-31T09:12:16;5.88;;;2.65;;
59109;SDS011;44895;47.438;18.978;2023-08-31T09:15:20;4.65;;;1.70;;
59109;SDS011;44895;47.438;18.978;2023-08-31T09:18:28;3.85;;;2.03;;
59109;SDS011;44895;47.438;18.978;2023-08-31T09:21:36;2.90;;;1.50;;
59109;SDS011;44895;47.438;18.978;2023-08-31T09:24:41;3.22;;;1.48;;
59109;SDS011;44895;47.438;18.978;2023-08-31T09:27:46;4.00;;;1.85;;
59109;SDS011;44895;47.438;18.978;2023-08-31T09:30:51;3.70;;;1.70;;
59109;SDS011;44895;47.438;18.978;2023-08-31T09:33:56;6.78;;;2.75;;
59109;SDS011;44895;47.438;18.978;2023-08-31T09:37:04;7.32;;;1.83;;
59109;SDS011;44895;47.438;18.978;2023-08-31T09:40:14;7.72;;;2.28;;
59109;SDS011;44895;47.438;18.978;2023-08-31T09:43:18;6.93;;;2.17;;
59109;SDS011;44895;47.438;18.978;2023-08-31T09:46:24;4.72;;;1.95;;
59109;SDS011;44895;47.438;18.978;2023-08-31T09:49:28;5.22;;;2.17;;
59109;SDS011;44895;47.438;18.978;2023-08-31T09:52:32;4.15;;;1.73;;
59109;SDS011;44895;47.438;18.978;2023-08-31T09:55:41;7.40;;;2.08;;
59109;SDS011;44895;47.438;18.978;2023-08-31T09:58:46;3.17;;;1.48;;
59109;SDS011;44895;47.438;18.978;2023-08-31T10:01:51;6.88;;;2.03;;
59109;SDS011;44895;47.438;18.978;2023-08-31T10:04:55;3.40;;;1.67;;
59109;SDS011;44895;47.438;18.978;2023-08-31T10:08:00;9.27;;;2.33;;
59109;SDS011;44895;47.438;18.978;2023-08-31T10:11:05;4.95;;;2.22;;
59109;SDS011;44895;47.438;18.978;2023-08-31T10:14:11;4.53;;;1.90;;
59109;SDS011;44895;47.438;18.978;2023-08-31T10:17:15;6.30;;;2.30;;
59109;SDS011;44895;47.438;18.978;2023-08-31T10:20:20;5.72;;;2.10;;
59109;SDS011;44895;47.438;18.978;2023-08-31T10:23:25;4.43;;;2.20;;
59109;SDS011;44895;47.438;18.978;2023-08-31T10:26:30;3.90;;;1.92;;
59109;SDS011;44895;47.438;18.978;2023-08-31T10:29:34;3.70;;;1.70;;
59109;SDS011;44895;47.438;18.978;2023-08-31T10:32:39;5.20;;;1.80;;
59109;SDS011;44895;47.438;18.978;2023-08-31T10:42:00;5.22;;;2.33;;
59109;SDS011;44895;47.438;18.978;2023-08-31T10:45:07;5.47;;;2.08;;
59109;SDS011;44895;47.438;18.978;2023-08-31T10:48:12;4.43;;;2.20;;
59109;SDS011;44895;47.438;18.978;2023-08-31T10:51:16;4.35;;;2.25;;
59109;SDS011;44895;47.438;18.978;2023-08-31T10:57:35;7.75;;;2.08;;
59109;SDS011;44895;47.438;18.978;2023-08-31T11:01:13;4.20;;;1.80;;
59109;SDS011;44895;47.438;18.978;2023-08-31T11:04:09;2.90;;;1.30;;
59109;SDS011;44895;47.438;18.978;2023-08-31T11:10:21;4.10;;;1.83;;
59109;SDS011;44895;47.438;18.978;2023-08-31T11:13:30;5.50;;;2.15;;
59109;SDS011;44895;47.438;18.978;2023-08-31T11:16:38;4.18;;;1.95;;
59109;SDS011;44895;47.438;18.978;2023-08-31T11:19:42;3.28;;;1.40;;
59109;SDS011;44895;47.438;18.978;2023-08-31T11:22:48;4.70;;;1.67;;
59109;SDS011;44895;47.438;18.978;2023-08-31T11:25:53;4.07;;;1.92;;
59109;SDS011;44895;47.438;18.978;2023-08-31T11:28:57;5.47;;;1.95;;
59109;SDS011;44895;47.438;18.978;2023-08-31T11:32:01;5.38;;;1.77;;
59109;SDS011;44895;47.438;18.978;2023-08-31T11:35:06;4.57;;;2.38;;
59109;SDS011;44895;47.438;18.978;2023-08-31T11:38:10;3.92;;;1.90;;
59109;SDS011;44895;47.438;18.978;2023-08-31T11:41:15;3.88;;;1.77;;
59109;SDS011;44895;47.438;18.978;2023-08-31T11:44:20;4.50;;;2.35;;
59109;SDS011;44895;47.438;18.978;2023-08-31T11:47:25;4.53;;;2.38;;
59109;SDS011;44895;47.438;18.978;2023-08-31T11:50:29;4.65;;;1.60;;
59109;SDS011;44895;47.438;18.978;2023-08-31T11:53:33;7.43;;;1.80;;
59109;SDS011;44895;47.438;18.978;2023-08-31T11:56:41;4.07;;;2.00;;
59109;SDS011;44895;47.438;18.978;2023-08-31T11:59:46;3.50;;;1.65;;
59109;SDS011;44895;47.438;18.978;2023-08-31T12:03:00;5.35;;;2.28;;
59109;SDS011;44895;47.438;18.978;2023-08-31T12:06:05;4.35;;;2.42;;
59109;SDS011;44895;47.438;18.978;2023-08-31T12:09:09;4.93;;;2.25;;
59109;SDS011;44895;47.438;18.978;2023-08-31T12:12:14;7.63;;;2.28;;
59109;SDS011;44895;47.438;18.978;2023-08-31T12:15:21;5.60;;;2.17;;
59109;SDS011;44895;47.438;18.978;2023-08-31T12:18:29;5.53;;;2.13;;
59109;SDS011;44895;47.438;18.978;2023-08-31T12:21:35;4.80;;;2.58;;
59109;SDS011;44895;47.438;18.978;2023-08-31T12:24:40;6.68;;;2.33;;
59109;SDS011;44895;47.438;18.978;2023-08-31T12:27:45;5.00;;;2.53;;
59109;SDS011;44895;47.438;18.978;2023-08-31T12:30:50;6.72;;;2.08;;
59109;SDS011;44895;47.438;18.978;2023-08-31T12:33:56;6.13;;;2.03;;
59109;SDS011;44895;47.438;18.978;2023-08-31T12:37:00;4.38;;;2.10;;
59109;SDS011;44895;47.438;18.978;2023-08-31T12:40:06;7.45;;;2.58;;
59109;SDS011;44895;47.438;18.978;2023-08-31T12:46:17;4.38;;;2.33;;
59109;SDS011;44895;47.438;18.978;2023-08-31T12:49:20;4.90;;;1.90;;
59109;SDS011;44895;47.438;18.978;2023-08-31T12:52:26;4.65;;;2.15;;
59109;SDS011;44895;47.438;18.978;2023-08-31T12:55:30;3.83;;;1.98;;
59109;SDS011;44895;47.438;18.978;2023-08-31T12:58:34;4.18;;;2.13;;
59109;SDS011;44895;47.438;18.978;2023-08-31T13:01:38;11.32;;;2.40;;
59109;SDS011;44895;47.438;18.978;2023-08-31T13:04:42;7.20;;;2.53;;
59109;SDS011;44895;47.438;18.978;2023-08-31T13:07:46;4.07;;;2.15;;
59109;SDS011;44895;47.438;18.978;2023-08-31T13:10:51;3.50;;;1.70;;
59109;SDS011;44895;47.438;18.978;2023-08-31T13:13:56;5.93;;;2.58;;
59109;SDS011;44895;47.438;18.978;2023-08-31T13:17:01;4.03;;;1.77;;
59109;SDS011;44895;47.438;18.978;2023-08-31T13:20:05;4.70;;;1.98;;
59109;SDS011;44895;47.438;18.978;2023-08-31T13:23:10;5.03;;;2.17;;
59109;SDS011;44895;47.438;18.978;2023-08-31T13:26:14;3.78;;;2.00;;
59109;SDS011;44895;47.438;18.978;2023-08-31T13:29:17;7.25;;;2.72;;
59109;SDS011;44895;47.438;18.978;2023-08-31T13:32:21;4.85;;;1.90;;
59109;SDS011;44895;47.438;18.978;2023-08-31T13:35:25;9.43;;;2.50;;
59109;SDS011;44895;47.438;18.978;2023-08-31T13:38:30;5.05;;;2.40;;
59109;SDS011;44895;47.438;18.978;2023-08-31T13:41:34;5.50;;;2.08;;
59109;SDS011;44895;47.438;18.978;2023-08-31T13:44:38;4.30;;;1.80;;
59109;SDS011;44895;47.438;18.978;2023-08-31T13:47:42;4.50;;;1.63;;
59109;SDS011;44895;47.438;18.978;2023-08-31T13:50:50;5.22;;;2.20;;
59109;SDS011;44895;47.438;18.978;2023-08-31T13:53:54;4.00;;;2.08;;
59109;SDS011;44895;47.438;18.978;2023-08-31T13:56:59;4.82;;;2.22;;
59109;SDS011;44895;47.438;18.978;2023-08-31T14:00:03;5.35;;;1.92;;
59109;SDS011;44895;47.438;18.978;2023-08-31T14:03:12;4.57;;;2.03;;
59109;SDS011;44895;47.438;18.978;2023-08-31T14:06:17;3.78;;;1.88;;
59109;SDS011;44895;47.438;18.978;2023-08-31T14:09:21;4.68;;;2.13;;
59109;SDS011;44895;47.438;18.978;2023-08-31T14:12:24;2.78;;;1.45;;
59109;SDS011;44895;47.438;18.978;2023-08-31T14:15:32;5.40;;;1.63;;
59109;SDS011;44895;47.438;18.978;2023-08-31T14:18:36;3.70;;;1.80;;
59109;SDS011;44895;47.438;18.978;2023-08-31T14:21:40;7.20;;;1.92;;
59109;SDS011;44895;47.438;18.978;2023-08-31T14:24:44;2.97;;;1.40;;
59109;SDS011;44895;47.438;18.978;2023-08-31T14:27:49;5.22;;;1.65;;
59109;SDS011;44895;47.438;18.978;2023-08-31T14:30:53;3.97;;;1.75;;
59109;SDS011;44895;47.438;18.978;2023-08-31T14:33:57;7.57;;;1.98;;
59109;SDS011;44895;47.438;18.978;2023-08-31T14:37:02;4.30;;;1.90;;
59109;SDS011;44895;47.438;18.978;2023-08-31T14:40:07;5.45;;;2.10;;
59109;SDS011;44895;47.438;18.978;2023-08-31T14:43:11;3.95;;;1.90;;
59109;SDS011;44895;47.438;18.978;2023-08-31T14:46:15;4.47;;;1.88;;
59109;SDS011;44895;47.438;18.978;2023-08-31T14:49:21;5.40;;;2.05;;
59109;SDS011;44895;47.438;18.978;2023-08-31T14:52:26;6.63;;;2.13;;
59109;SDS011;44895;47.438;18.978;2023-08-31T14:55:30;4.95;;;1.90;;
59109;SDS011;44895;47.438;18.978;2023-08-31T14:58:34;4.43;;;1.83;;
59109;SDS011;44895;47.438;18.978;2023-08-31T15:01:39;13.85;;;2.33;;
59109;SDS011;44895;47.438;18.978;2023-08-31T15:04:43;4.20;;;1.77;;
59109;SDS011;44895;47.438;18.978;2023-08-31T15:07:50;3.53;;;1.48;;
59109;SDS011;44895;47.438;18.978;2023-08-31T15:10:54;4.30;;;1.80;;
59109;SDS011;44895;47.438;18.978;2023-08-31T15:13:59;3.92;;;1.75;;
59109;SDS011;44895;47.438;18.978;2023-08-31T15:17:04;3.45;;;1.40;;
59109;SDS011;44895;47.438;18.978;2023-08-31T15:20:09;3.22;;;1.50;;
59109;SDS011;44895;47.438;18.978;2023-08-31T15:23:14;4.20;;;1.73;;
59109;SDS011;44895;47.438;18.978;2023-08-31T15:26:19;4.35;;;1.75;;
59109;SDS011;44895;47.438;18.978;2023-08-31T15:29:23;2.92;;;1.70;;
59109;SDS011;44895;47.438;18.978;2023-08-31T15:32:27;5.25;;;2.42;;
59109;SDS011;44895;47.438;18.978;2023-08-31T15:35:32;4.72;;;1.77;;
59109;SDS011;44895;47.438;18.978;2023-08-31T15:38:37;4.40;;;2.00;;
59109;SDS011;44895;47.438;18.978;2023-08-31T15:41:42;5.22;;;1.98;;
59109;SDS011;44895;47.438;18.978;2023-08-31T15:44:46;4.57;;;1.67;;
59109;SDS011;44895;47.438;18.978;2023-08-31T15:47:50;3.35;;;1.33;;
59109;SDS011;44895;47.438;18.978;2023-08-31T15:50:56;5.53;;;2.22;;
59109;SDS011;44895;47.438;18.978;2023-08-31T15:54:01;3.47;;;1.60;;
59109;SDS011;44895;47.438;18.978;2023-08-31T15:57:09;4.95;;;1.45;;
59109;SDS011;44895;47.438;18.978;2023-08-31T16:00:13;7.85;;;1.98;;
59109;SDS011;44895;47.438;18.978;2023-08-31T16:03:18;4.93;;;1.63;;
59109;SDS011;44895;47.438;18.978;2023-08-31T16:06:22;3.72;;;1.42;;
59109;SDS011;44895;47.438;18.978;2023-08-31T16:09:27;4.10;;;1.88;;
59109;SDS011;44895;47.438;18.978;2023-08-31T16:12:32;4.00;;;1.55;;
59109;SDS011;44895;47.438;18.978;2023-08-31T16:15:38;5.72;;;1.70;;
59109;SDS011;44895;47.438;18.978;2023-08-31T16:18:52;3.15;;;1.30;;
59109;SDS011;44895;47.438;18.978;2023-08-31T16:21:56;9.77;;;1.52;;
59109;SDS011;44895;47.438;18.978;2023-08-31T16:25:01;3.35;;;1.50;;
59109;SDS011;44895;47.438;18.978;2023-08-31T16:28:09;5.30;;;2.43;;
59109;SDS011;44895;47.438;18.978;2023-08-31T16:31:14;4.78;;;2.25;;
59109;SDS011;44895;47.438;18.978;2023-08-31T16:34:19;6.20;;;1.67;;
59109;SDS011;44895;47.438;18.978;2023-08-31T16:37:24;8.02;;;2.30;;
59109;SDS011;44895;47.438;18.978;2023-08-31T16:40:29;5.25;;;1.75;;
59109;SDS011;44895;47.438;18.978;2023-08-31T16:43:33;3.92;;;1.40;;
59109;SDS011;44895;47.438;18.978;2023-08-31T16:46:39;7.40;;;2.00;;
59109;SDS011;44895;47.438;18.978;2023-08-31T16:49:44;4.22;;;1.70;;
59109;SDS011;44895;47.438;18.978;2023-08-31T16:52:48;4.30;;;1.60;;
59109;SDS011;44895;47.438;18.978;2023-08-31T16:55:52;3.83;;;1.75;;
59109;SDS011;44895;47.438;18.978;2023-08-31T16:58:59;5.22;;;2.22;;
59109;SDS011;44895;47.438;18.978;2023-08-31T17:02:04;5.03;;;2.13;;
59109;SDS011;44895;47.438;18.978;2023-08-31T17:05:09;3.67;;;1.63;;
59109;SDS011;44895;47.438;18.978;2023-08-31T17:08:14;5.97;;;2.20;;
59109;SDS011;44895;47.438;18.978;2023-08-31T17:11:20;7.63;;;2.45;;
59109;SDS011;44895;47.438;18.978;2023-08-31T17:14:24;4.63;;;2.00;;
59109;SDS011;44895;47.438;18.978;2023-08-31T17:20:36;4.13;;;1.83;;
59109;SDS011;44895;47.438;18.978;2023-08-31T17:23:41;4.55;;;1.90;;
59109;SDS011;44895;47.438;18.978;2023-08-31T17:26:46;4.68;;;1.98;;
59109;SDS011;44895;47.438;18.978;2023-08-31T17:29:52;6.97;;;2.08;;
59109;SDS011;44895;47.438;18.978;2023-08-31T17:32:57;8.35;;;2.20;;
59109;SDS011;44895;47.438;18.978;2023-08-31T17:36:03;9.57;;;2.22;;
59109;SDS011;44895;47.438;18.978;2023-08-31T17:39:07;6.40;;;2.55;;
59109;SDS011;44895;47.438;18.978;2023-08-31T17:42:12;6.00;;;2.20;;
59109;SDS011;44895;47.438;18.978;2023-08-31T17:45:17;4.68;;;2.00;;
59109;SDS011;44895;47.438;18.978;2023-08-31T17:48:23;5.88;;;2.13;;
59109;SDS011;44895;47.438;18.978;2023-08-31T17:54:35;5.00;;;2.20;;
59109;SDS011;44895;47.438;18.978;2023-08-31T17:57:40;4.65;;;1.70;;
59109;SDS011;44895;47.438;18.978;2023-08-31T18:00:48;5.47;;;2.40;;
59109;SDS011;44895;47.438;18.978;2023-08-31T18:03:54;6.30;;;2.30;;
59109;SDS011;44895;47.438;18.978;2023-08-31T18:06:59;7.57;;;2.53;;
59109;SDS011;44895;47.438;18.978;2023-08-31T18:10:04;8.95;;;2.85;;
59109;SDS011;44895;47.438;18.978;2023-08-31T18:13:08;5.10;;;1.88;;
59109;SDS011;44895;47.438;18.978;2023-08-31T18:16:15;5.88;;;2.85;;
59109;SDS011;44895;47.438;18.978;2023-08-31T18:19:21;6.32;;;1.95;;
59109;SDS011;44895;47.438;18.978;2023-08-31T18:22:28;4.22;;;1.90;;
59109;SDS011;44895;47.438;18.978;2023-08-31T18:25:33;6.97;;;2.22;;
59109;SDS011;44895;47.438;18.978;2023-08-31T18:28:37;4.20;;;1.90;;
59109;SDS011;44895;47.438;18.978;2023-08-31T18:31:43;6.22;;;2.50;;
59109;SDS011;44895;47.438;18.978;2023-08-31T18:34:50;6.00;;;2.00;;
59109;SDS011;44895;47.438;18.978;2023-08-31T18:37:58;4.90;;;1.98;;
59109;SDS011;44895;47.438;18.978;2023-08-31T18:41:03;10.63;;;2.50;;
59109;SDS011;44895;47.438;18.978;2023-08-31T18:44:08;5.70;;;1.75;;
59109;SDS011;44895;47.438;18.978;2023-08-31T18:47:13;6.05;;;2.10;;